Strona główna
METAR-TAF:

METAR-TAF

Lotnisko :

Port lotniczy Dar es Salaam

Dar es Salaam, Tanzania

Szerokość geograficzna: 06-52S, Długość geograficzna: 039-12E, wysokość: 55 m

Aktualna obserwacja pogody

Raport powstał 3 godziny i 4 minut temu, godzina 15:00 UTC
Wiatr 12 kt od południowy wschód
Temperatura 27°C
Wilgotność 51%
Ciśnienie 1016 hPa
Widzialność 10 km lub więcej
Brak chmur poniżej 1500 m i brak chmur cumulonimbus

METAR: HTDA 161500Z 14012KT CAVOK 27/16 Q1016 NOSIG

czas: 21:04 (18:04 UTC)

Prognoza

Raport powstał 7 godziny i 4 minut temu, godzina 11:00 UTC
Prognoza ważna od 16 godzina 12 UTC do 17 godzina 18 UTC
Wiatr 15 kt od południowo-południowy wschód w porywach dochodzący do 25 kt
Widzialność 10 km lub więcej
Rozproszone chmury na wysokości 3500 ft
Stopniowe zmiany
od 16 godzina 18 UTC do 16 godzina 21 UTC
Wiatr 10 kt od południe

TAF: HTDA 161100Z 1612/1718 16015G25KT 9999 SCT035 BECMG 1618/1621 18010KT

Obserwacja i prognoza pogody dla ponad 4000 lotnisk (raport METAR i TAF).

Dostępne stacje oznaczono żółtymi i czerwonymi punktami na mapie.

Najedź kursorem aby zobaczyć nazwę stacji.

Kliknij aby zobaczyć obserwacje i prognozy pogody.

Aby zmienić mapę: kliknij na zielony przycisk z czarnym krzyżykiem, aby powiększyć; na zielony przycisk z myślnikiem, aby pomniejszyć; na zielone strzałki, aby przejść do map sąsiednich.


METAR-TAF: